Time;durP1;ratioP1;P1;durP2;ratioP2;P2;SDS_P1;SDS_P2;PMS_P1;PMS_P2;Temp;Humidity;BMP_temperature;BMP_pressure;BME280_temperature;BME280_humidity;BME280_pressure;Samples;Min_cycle;Max_cycle;Signal;HPM_P1;HPM_P2
2021/03/14 00:01:46;;;;;;;12.32;4.15;;;;;;;23.53;46.34;99133.81;5092692;28;20065;-61
2021/03/14 00:04:11;;;;;;;11.60;4.38;;;;;;;23.56;46.57;99133.31;5092525;28;20463;-61
2021/03/14 00:06:37;;;;;;;11.15;4.00;;;;;;;23.48;46.52;99136.44;5092594;28;20019;-62
2021/03/14 00:09:03;;;;;;;9.65;4.00;;;;;;;23.48;46.90;99130.97;5092403;28;20028;-62
2021/03/14 00:11:28;;;;;;;9.73;4.13;;;;;;;23.42;46.45;99137.44;5092761;28;20024;-61
2021/03/14 00:13:53;;;;;;;11.13;3.90;;;;;;;23.44;46.57;99135.28;5092300;28;20032;-61
2021/03/14 00:16:18;;;;;;;17.23;5.32;;;;;;;23.43;46.20;99122.66;5089671;28;20038;-61
2021/03/14 00:18:44;;;;;;;13.05;4.82;;;;;;;23.44;49.04;99129.81;5072490;28;20024;-62
2021/03/14 00:21:10;;;;;;;11.98;4.45;;;;;;;23.47;48.07;99128.47;5072249;28;20024;-61
2021/03/14 00:23:35;;;;;;;12.82;4.65;;;;;;;23.41;46.29;99135.78;5072535;28;20510;-61
2021/03/14 00:26:02;;;;;;;12.50;5.05;;;;;;;23.43;47.37;99130.88;5072071;28;20032;-61
2021/03/14 00:28:27;;;;;;;12.70;5.15;;;;;;;23.41;48.41;99125.66;5076061;28;20032;-60
2021/03/14 00:30:53;;;;;;;12.85;4.78;;;;;;;23.37;47.67;99115.44;5076101;28;20368;-61
2021/03/14 00:33:19;;;;;;;10.02;3.88;;;;;;;23.40;48.12;99123.16;5076331;28;20031;-61
2021/03/14 00:35:44;;;;;;;13.20;4.57;;;;;;;23.34;47.11;99127.69;5076117;28;20376;-61
2021/03/14 00:38:10;;;;;;;12.88;4.75;;;;;;;23.38;47.36;99130.78;5076052;28;20387;-61
2021/03/14 00:40:35;;;;;;;10.45;4.20;;;;;;;23.37;48.23;99120.91;5076009;28;20036;-61
2021/03/14 00:43:04;;;;;;;10.90;4.50;;;;;;;23.39;49.80;99132.47;5075902;28;20035;-62
2021/03/14 00:45:32;;;;;;;10.63;4.00;;;;;;;23.39;48.23;99122.31;5076152;28;20012;-62
2021/03/14 00:47:58;;;;;;;10.48;4.22;;;;;;;23.45;47.94;99115.00;5091156;28;20100;-61
2021/03/14 00:50:24;;;;;;;9.35;3.45;;;;;;;23.45;53.09;99119.66;5076664;28;20060;-61
2021/03/14 00:52:49;;;;;;;12.20;4.75;;;;;;;23.43;48.34;99114.44;5075770;28;20055;-61
2021/03/14 00:55:15;;;;;;;14.98;4.45;;;;;;;23.40;47.94;99114.94;5075590;28;20085;-61
2021/03/14 00:57:40;;;;;;;10.25;4.30;;;;;;;23.40;48.58;99123.97;5075851;28;20025;-61
2021/03/14 01:00:06;;;;;;;11.35;4.38;;;;;;;23.44;48.78;99118.84;5075562;28;20495;-61
2021/03/14 01:02:31;;;;;;;11.23;4.45;;;;;;;23.44;48.56;99124.31;5093584;28;20035;-61
2021/03/14 01:04:57;;;;;;;9.70;3.83;;;;;;;23.43;47.89;99128.13;5095705;28;20016;-61
2021/03/14 01:07:22;;;;;;;11.35;4.07;;;;;;;23.39;47.73;99122.31;5095922;28;20114;-61
2021/03/14 01:09:47;;;;;;;9.38;4.15;;;;;;;23.43;48.38;99122.66;5095863;28;20027;-61
2021/03/14 01:12:13;;;;;;;10.75;4.32;;;;;;;23.43;47.62;99128.13;5095831;28;20036;-61
2021/03/14 01:14:38;;;;;;;12.07;4.90;;;;;;;23.48;47.82;99119.16;5096040;28;20016;-61
2021/03/14 01:17:03;;;;;;;10.23;4.25;;;;;;;23.49;47.33;99120.84;5095071;28;20448;-61
2021/03/14 01:19:29;;;;;;;12.80;4.30;;;;;;;23.42;47.47;99126.47;5095697;28;20505;-61
2021/03/14 01:21:54;;;;;;;11.40;4.20;;;;;;;23.46;46.92;99122.16;5095514;28;20023;-61
2021/03/14 01:24:20;;;;;;;10.48;3.70;;;;;;;23.47;47.57;99117.50;5095452;28;20038;-61
2021/03/14 01:26:46;;;;;;;11.38;4.70;;;;;;;23.43;47.48;99119.91;5095600;28;20055;-61
2021/03/14 01:29:11;;;;;;;10.20;3.85;;;;;;;23.52;46.84;99120.38;5095390;28;20028;-61
2021/03/14 01:31:36;;;;;;;9.60;3.85;;;;;;;23.43;47.84;99119.91;5095576;28;20028;-61
2021/03/14 01:34:01;;;;;;;11.43;3.95;;;;;;;23.44;48.73;99123.50;5095114;28;20028;-61
2021/03/14 01:36:27;;;;;;;11.23;4.47;;;;;;;23.43;49.45;99114.44;5095238;28;20027;-62
2021/03/14 01:38:52;;;;;;;11.95;4.07;;;;;;;23.34;50.63;99127.69;5092962;28;20123;-61
2021/03/14 01:41:17;;;;;;;12.48;4.15;;;;;;;23.36;52.00;99132.97;5095197;28;20069;-61
2021/03/14 01:43:43;;;;;;;16.48;4.38;;;;;;;23.34;48.50;99124.13;5093966;28;20482;-61
2021/03/14 01:46:09;;;;;;;12.30;5.03;;;;;;;23.23;48.94;99128.59;5094601;28;20066;-62
2021/03/14 01:48:36;;;;;;;12.77;4.65;;;;;;;23.18;49.08;99130.38;5095029;28;20378;-61
2021/03/14 01:51:03;;;;;;;10.70;4.05;;;;;;;23.16;48.62;99127.88;5094909;28;20070;-61
2021/03/14 01:53:30;;;;;;;11.02;4.53;;;;;;;23.07;47.06;99124.72;5093562;28;20036;-61
2021/03/14 01:55:56;;;;;;;10.93;4.85;;;;;;;23.06;46.74;99127.69;5094682;28;20020;-61
2021/03/14 01:58:23;;;;;;;11.35;4.53;;;;;;;23.05;48.92;99121.38;5094834;28;20035;-61
2021/03/14 02:00:49;;;;;;;12.40;4.53;;;;;;;23.01;46.28;99125.69;5094763;28;20478;-61
2021/03/14 02:03:14;;;;;;;10.32;3.53;;;;;;;23.05;46.57;99121.38;5094853;28;20039;-62
2021/03/14 02:05:40;;;;;;;11.63;4.30;;;;;;;23.05;48.24;99121.38;5094818;28;20026;-61
2021/03/14 02:08:06;;;;;;;11.00;3.75;;;;;;;23.04;47.21;99122.47;5094585;28;20039;-61
2021/03/14 02:10:33;;;;;;;12.02;4.57;;;;;;;23.07;47.28;99119.22;5094626;28;20509;-61
2021/03/14 02:13:05;;;;;;;10.90;3.75;;;;;;;23.04;47.21;99124.38;5094374;28;20399;-61
2021/03/14 02:15:34;;;;;;;14.70;4.25;;;;;;;23.04;46.88;99122.47;5094458;28;20020;-62
2021/03/14 02:18:01;;;;;;;12.70;4.40;;;;;;;23.02;48.07;99119.13;5074001;28;20463;-61
2021/03/14 02:20:30;;;;;;;12.10;4.28;;;;;;;23.04;47.27;99125.22;5074080;28;20493;-61
2021/03/14 02:23:10;;;;;;;13.30;4.75;;;;;;;22.98;47.20;99122.59;5074015;28;20020;-61
2021/03/14 02:25:45;;;;;;;12.10;3.80;;;;;;;23.00;47.60;99126.75;5074182;28;20099;-61
2021/03/14 02:28:11;;;;;;;13.52;4.82;;;;;;;23.01;49.52;99131.19;5073982;28;20199;-62
2021/03/14 02:30:36;;;;;;;11.20;4.00;;;;;;;22.98;47.24;99120.69;5075284;28;20383;-61
2021/03/14 02:33:02;;;;;;;12.20;4.30;;;;;;;23.01;46.49;99114.72;5073832;28;20501;-61
2021/03/14 02:35:29;;;;;;;12.40;4.30;;;;;;;23.00;45.67;99124.00;5073960;28;20062;-61
2021/03/14 02:37:54;;;;;;;9.82;4.78;;;;;;;22.96;46.76;99120.09;5073774;28;20028;-61
2021/03/14 02:40:21;;;;;;;12.38;4.28;;;;;;;22.96;45.85;99120.09;5073734;28;20033;-61
2021/03/14 02:42:49;;;;;;;12.35;4.00;;;;;;;22.97;45.92;99119.00;5073835;28;20359;-61
2021/03/14 02:45:15;;;;;;;7.72;3.83;;;;;;;22.96;47.43;99117.34;5073759;28;20040;-62
2021/03/14 02:47:40;;;;;;;10.98;4.65;;;;;;;22.95;46.51;99112.94;5091028;28;20419;-61
2021/03/14 02:50:16;;;;;;;11.32;4.75;;;;;;;23.05;47.20;99115.91;5093738;28;20024;-62
2021/03/14 02:52:42;;;;;;;12.07;4.50;;;;;;;23.04;47.33;99114.25;5093924;28;20024;-61
2021/03/14 02:55:10;;;;;;;12.30;4.00;;;;;;;23.06;49.23;99111.25;5093446;28;20053;-61
2021/03/14 02:57:37;;;;;;;14.07;4.20;;;;;;;23.07;48.15;99113.75;5093778;28;20072;-61
2021/03/14 03:00:05;;;;;;;10.95;4.38;;;;;;;23.09;48.50;99106.13;5092123;28;20035;-61
2021/03/14 03:02:30;;;;;;;8.73;3.60;;;;;;;23.10;51.00;99110.50;5093574;28;20470;-61
2021/03/14 03:04:56;;;;;;;9.93;3.78;;;;;;;23.06;49.11;99120.31;5093466;28;20024;-61
2021/03/14 03:07:23;;;;;;;9.30;3.85;;;;;;;23.06;48.94;99117.56;5093700;28;20463;-61
2021/03/14 03:09:51;;;;;;;14.00;4.35;;;;;;;23.09;49.02;99111.59;5093545;28;20523;-62
2021/03/14 03:12:20;;;;;;;11.20;4.10;;;;;;;23.10;50.84;99117.91;5093373;28;20024;-61
2021/03/14 03:14:47;;;;;;;10.63;4.03;;;;;;;23.10;51.77;99118.75;5093417;28;20035;-62
2021/03/14 03:17:13;;;;;;;10.75;4.30;;;;;;;23.13;48.72;99116.59;5092363;28;20036;-62
2021/03/14 03:19:40;;;;;;;9.57;3.55;;;;;;;23.13;49.26;99122.06;5073291;28;20032;-61
2021/03/14 03:22:05;;;;;;;11.77;3.97;;;;;;;23.14;50.00;99118.25;5072941;28;20027;-62
2021/03/14 03:24:31;;;;;;;10.55;4.05;;;;;;;23.20;48.45;99122.78;5072924;28;20629;-60
2021/03/14 03:26:56;;;;;;;11.55;4.70;;;;;;;23.19;48.96;99121.09;5072852;28;20552;-62
2021/03/14 03:29:22;;;;;;;12.80;4.65;;;;;;;23.25;48.56;99120.13;5073035;28;20066;-61
2021/03/14 03:31:47;;;;;;;11.25;3.83;;;;;;;23.19;49.54;99123.84;5072848;28;20391;-61
2021/03/14 03:34:14;;;;;;;11.75;4.47;;;;;;;23.17;48.24;99112.28;5071425;28;20511;-61
2021/03/14 03:36:40;;;;;;;14.55;5.70;;;;;;;23.20;50.89;99117.28;5072911;28;20477;-61
2021/03/14 03:39:08;;;;;;;13.25;4.28;;;;;;;23.15;51.11;99120.75;5072608;28;20052;-62
2021/03/14 03:41:39;;;;;;;13.80;5.13;;;;;;;23.12;51.84;99107.53;5086849;28;20031;-61
2021/03/14 03:44:05;;;;;;;15.18;4.72;;;;;;;23.17;52.20;99115.00;5092907;28;20028;-62
2021/03/14 03:46:32;;;;;;;12.60;4.35;;;;;;;23.06;52.21;99127.69;5092139;28;20466;-60
2021/03/14 03:48:58;;;;;;;10.60;4.18;;;;;;;22.94;52.12;99122.25;5092719;28;20403;-61
2021/03/14 03:51:26;;;;;;;14.50;4.57;;;;;;;22.89;49.60;99115.84;5093014;28;20058;-61
2021/03/14 03:53:54;;;;;;;12.45;4.50;;;;;;;22.81;50.65;99108.78;5092623;28;20047;-62
2021/03/14 03:56:21;;;;;;;14.35;4.30;;;;;;;22.85;50.54;99118.22;5092615;28;20378;-61
2021/03/14 03:58:47;;;;;;;10.80;4.35;;;;;;;22.81;47.72;99119.75;5092839;28;20031;-62
2021/03/14 04:01:15;;;;;;;11.05;3.83;;;;;;;22.83;47.88;99125.84;5092234;28;20027;-61
2021/03/14 04:03:43;;;;;;;11.23;4.22;;;;;;;22.80;48.78;99118.91;5092902;28;20459;-60
2021/03/14 04:06:09;;;;;;;12.88;4.70;;;;;;;22.79;47.59;99121.88;5092589;28;20482;-60
2021/03/14 04:08:36;;;;;;;12.80;3.83;;;;;;;22.77;47.50;99121.31;5092613;28;20067;-61
2021/03/14 04:11:05;;;;;;;12.43;3.97;;;;;;;22.81;48.01;99119.75;5092504;28;20027;-61
2021/03/14 04:13:32;;;;;;;11.68;4.15;;;;;;;22.83;47.26;99122.25;5092756;28;20031;-61
2021/03/14 04:15:59;;;;;;;9.77;3.38;;;;;;;22.85;49.28;99125.63;5086469;28;20039;-61
2021/03/14 04:18:27;;;;;;;11.25;3.95;;;;;;;22.80;46.77;99124.38;5082676;28;20081;-61
2021/03/14 04:20:55;;;;;;;12.32;4.05;;;;;;;22.80;47.53;99124.38;5092468;28;20074;-62
2021/03/14 04:23:22;;;;;;;8.45;3.97;;;;;;;22.78;48.41;99125.72;5092664;28;20106;-61
2021/03/14 04:25:51;;;;;;;10.40;4.40;;;;;;;22.81;48.03;99127.94;5091139;28;20024;-61
2021/03/14 04:28:18;;;;;;;11.73;4.18;;;;;;;22.78;47.96;99125.72;5092324;28;20031;-61
2021/03/14 04:30:44;;;;;;;12.98;4.70;;;;;;;22.75;47.23;99126.19;5092602;28;20093;-61
2021/03/14 04:33:10;;;;;;;11.80;3.80;;;;;;;22.73;47.77;99126.44;5092386;28;20401;-60
2021/03/14 04:35:39;;;;;;;11.80;4.28;;;;;;;22.77;47.08;99132.25;5092749;28;20035;-61
2021/03/14 04:38:05;;;;;;;15.18;5.50;;;;;;;22.74;46.87;99135.47;5092263;28;20071;-60
2021/03/14 04:40:30;;;;;;;13.15;4.53;;;;;;;22.78;46.81;99132.00;5091058;28;20443;-60
2021/03/14 04:42:58;;;;;;;13.27;4.30;;;;;;;22.78;47.07;99142.97;5092230;28;20052;-61
2021/03/14 04:45:24;;;;;;;10.05;4.45;;;;;;;22.76;46.57;99136.06;5091857;28;20016;-61
2021/03/14 04:47:49;;;;;;;11.30;4.82;;;;;;;22.71;46.72;99142.28;5092368;28;20523;-61
2021/03/14 04:50:20;;;;;;;9.77;3.53;;;;;;;22.74;46.56;99141.81;5092049;28;20077;-61
2021/03/14 04:52:49;;;;;;;11.13;3.75;;;;;;;22.78;46.57;99133.94;5092384;28;20020;-61
2021/03/14 04:55:16;;;;;;;8.05;3.95;;;;;;;22.77;46.81;99143.22;5092023;28;20040;-61
2021/03/14 04:57:43;;;;;;;11.88;4.25;;;;;;;22.84;48.76;99135.72;5092313;28;20016;-61
2021/03/14 05:00:14;;;;;;;11.13;4.15;;;;;;;22.90;49.02;99134.78;5092057;28;20493;-61
2021/03/14 05:02:42;;;;;;;9.35;3.67;;;;;;;23.94;46.76;99135.41;5092172;28;20103;-61
2021/03/14 05:05:10;;;;;;;12.13;4.53;;;;;;;24.37;47.42;99139.41;5092087;28;20024;-61
2021/03/14 05:07:36;;;;;;;10.18;3.85;;;;;;;24.64;44.97;99144.19;5092280;28;20066;-60
2021/03/14 05:10:05;;;;;;;11.18;4.30;;;;;;;24.81;47.84;99134.81;5092024;28;20031;-61
2021/03/14 05:12:31;;;;;;;12.05;4.13;;;;;;;25.01;46.62;99139.75;5091933;28;20546;-60
2021/03/14 05:14:56;;;;;;;8.20;3.92;;;;;;;25.09;47.45;99133.00;5093882;28;20123;-61
2021/03/14 05:17:23;;;;;;;10.32;3.50;;;;;;;25.16;46.00;99141.84;5094531;28;20024;-61
2021/03/14 05:19:49;;;;;;;15.73;4.32;;;;;;;25.33;47.50;99139.84;5095715;28;20058;-61
2021/03/14 05:22:17;;;;;;;11.30;4.70;;;;;;;25.34;46.42;99144.28;5095488;28;20051;-60
2021/03/14 05:24:44;;;;;;;11.95;4.35;;;;;;;25.33;47.97;99137.09;5095728;28;20030;-60
2021/03/14 05:27:10;;;;;;;12.27;5.07;;;;;;;25.39;47.20;99135.28;5095511;28;20512;-60
2021/03/14 05:29:36;;;;;;;11.20;4.47;;;;;;;25.43;47.37;99136.41;5095612;28;20065;-61
2021/03/14 05:32:01;;;;;;;11.93;4.70;;;;;;;25.38;46.14;99136.34;5095641;28;20024;-61
2021/03/14 05:34:27;;;;;;;11.85;4.18;;;;;;;25.53;47.72;99142.03;5095292;28;20020;-61
2021/03/14 05:36:52;;;;;;;10.15;3.92;;;;;;;25.67;47.66;99142.41;5095304;28;20027;-60
2021/03/14 05:39:18;;;;;;;10.85;4.10;;;;;;;25.64;45.93;99137.44;5095324;28;20085;-61
2021/03/14 05:41:44;;;;;;;9.10;3.75;;;;;;;25.65;43.72;99139.94;5095366;28;20028;-61
2021/03/14 05:44:10;;;;;;;12.70;4.28;;;;;;;25.78;44.76;99150.53;5094419;28;20394;-61
2021/03/14 05:46:36;;;;;;;10.00;3.78;;;;;;;25.80;43.86;99153.03;5079971;28;20371;-61
2021/03/14 05:49:03;;;;;;;11.90;4.25;;;;;;;25.78;44.34;99144.22;5074528;28;20037;-61
2021/03/14 05:51:31;;;;;;;10.15;4.28;;;;;;;25.79;47.07;99159.63;5093054;28;20028;-60
2021/03/14 05:53:57;;;;;;;12.80;4.13;;;;;;;25.57;46.63;99158.84;5094961;28;20089;-61
2021/03/14 05:56:24;;;;;;;12.48;4.25;;;;;;;25.46;48.90;99157.88;5094841;28;20024;-60
2021/03/14 05:58:50;;;;;;;13.68;4.43;;;;;;;25.48;46.74;99164.78;5095006;28;20459;-61
2021/03/14 06:01:18;;;;;;;11.95;4.40;;;;;;;25.33;46.95;99164.63;5094773;28;20078;-60
2021/03/14 06:03:44;;;;;;;9.70;3.63;;;;;;;25.27;46.38;99160.16;5094980;28;20024;-61
2021/03/14 06:06:11;;;;;;;10.05;3.88;;;;;;;25.15;45.08;99162.19;5094983;28;20371;-61
2021/03/14 06:08:38;;;;;;;11.90;4.10;;;;;;;25.30;44.98;99165.13;5094827;28;20028;-61
2021/03/14 06:11:05;;;;;;;13.48;4.50;;;;;;;25.32;44.86;99162.94;5094590;28;20467;-61
2021/03/14 06:13:31;;;;;;;11.57;4.13;;;;;;;25.29;43.30;99174.47;5094715;28;20438;-60
2021/03/14 06:15:57;;;;;;;10.15;3.92;;;;;;;25.31;44.88;99175.03;5093735;28;20107;-61
2021/03/14 06:18:22;;;;;;;11.82;3.90;;;;;;;25.28;45.55;99166.47;5087161;28;20066;-60
2021/03/14 06:20:48;;;;;;;11.40;4.45;;;;;;;25.19;43.72;99174.34;5074284;28;20464;-61
2021/03/14 06:23:16;;;;;;;12.38;3.83;;;;;;;25.22;44.54;99170.28;5074254;28;20486;-61
2021/03/14 06:25:44;;;;;;;13.90;4.20;;;;;;;25.20;46.91;99178.78;5073897;28;20017;-61
2021/03/14 06:28:10;;;;;;;10.77;3.90;;;;;;;25.29;45.18;99168.97;5074001;28;20020;-60
2021/03/14 06:30:36;;;;;;;9.18;4.40;;;;;;;25.26;44.41;99174.16;5074546;28;20033;-60
2021/03/14 06:33:11;;;;;;;12.93;4.45;;;;;;;25.30;45.13;99181.63;5073929;28;20103;-60
2021/03/14 06:35:37;;;;;;;13.25;4.15;;;;;;;25.31;43.58;99177.78;5074037;28;20023;-60
2021/03/14 06:38:27;;;;;;;12.98;4.80;;;;;;;25.32;43.73;99179.44;5089729;28;20043;-61
2021/03/14 06:41:01;;;;;;;13.07;4.72;;;;;;;25.28;47.64;99183.81;5094050;28;20474;-61
2021/03/14 06:43:31;;;;;;;10.13;3.85;;;;;;;25.35;45.09;99184.44;5094228;28;20026;-60
2021/03/14 06:45:56;;;;;;;13.68;4.00;;;;;;;25.42;47.35;99187.84;5093963;28;20363;-60
2021/03/14 06:48:26;;;;;;;11.05;4.70;;;;;;;25.49;43.38;99187.63;5093858;28;20026;-60
2021/03/14 06:50:52;;;;;;;10.32;4.00;;;;;;;25.45;45.38;99186.50;5093936;28;20066;-61
2021/03/14 06:53:19;;;;;;;10.30;4.05;;;;;;;25.52;44.95;99200.03;5092411;28;20024;-60
2021/03/14 06:55:46;;;;;;;10.05;4.32;;;;;;;25.59;45.76;99198.75;5093836;28;20030;-62
2021/03/14 06:58:35;;;;;;;12.25;4.53;;;;;;;25.60;44.63;99197.66;5093641;28;20019;-60
2021/03/14 07:01:19;;;;;;;12.88;3.92;;;;;;;25.57;47.27;99192.69;5093400;28;20035;-61
2021/03/14 07:03:54;;;;;;;11.73;4.53;;;;;;;25.54;47.26;99195.97;5093819;28;20024;-60
2021/03/14 07:06:22;;;;;;;11.50;4.47;;;;;;;25.64;46.17;99197.97;5092727;28;20031;-61
2021/03/14 07:08:51;;;;;;;10.02;5.03;;;;;;;25.69;46.94;99195.28;5077070;28;20457;-60
2021/03/14 07:11:36;;;;;;;8.98;4.00;;;;;;;25.75;47.51;99200.63;5093500;28;20024;-60
2021/03/14 07:14:03;;;;;;;11.95;4.28;;;;;;;25.78;47.41;99199.25;5093360;28;20024;-61
2021/03/14 07:16:53;;;;;;;11.93;4.10;;;;;;;25.86;46.56;99201.53;5093266;28;20028;-60
2021/03/14 07:19:25;;;;;;;11.85;4.57;;;;;;;25.87;47.46;99203.22;5093445;28;20526;-60
2021/03/14 07:22:11;;;;;;;11.98;4.13;;;;;;;25.86;47.60;99207.03;5093267;28;20024;-60
2021/03/14 07:24:38;;;;;;;11.50;4.28;;;;;;;25.89;45.38;99206.53;5093116;28;20093;-60
2021/03/14 07:27:08;;;;;;;16.75;5.00;;;;;;;25.95;49.29;99204.66;5093129;28;20031;-61
2021/03/14 07:29:34;;;;;;;9.88;4.07;;;;;;;25.90;46.87;99213.69;5093317;28;20024;-60
2021/03/14 07:32:01;;;;;;;9.30;3.67;;;;;;;25.95;50.05;99210.16;5092991;28;20099;-60
2021/03/14 07:34:26;;;;;;;13.13;4.68;;;;;;;25.87;46.01;99208.72;5093023;28;20379;-60
2021/03/14 07:36:53;;;;;;;11.82;4.25;;;;;;;25.97;46.21;99208.81;5086505;28;20025;-60
2021/03/14 07:39:18;;;;;;;10.20;3.67;;;;;;;25.93;48.05;99213.19;5073232;28;20035;-60
2021/03/14 07:41:44;;;;;;;11.18;3.67;;;;;;;25.90;46.17;99219.22;5088701;28;20024;-61
2021/03/14 07:44:10;;;;;;;10.75;4.10;;;;;;;25.96;45.15;99211.81;5092892;28;20070;-61
2021/03/14 07:46:36;;;;;;;12.73;4.05;;;;;;;25.95;47.86;99219.25;5092920;28;20402;-61
2021/03/14 07:49:03;;;;;;;13.55;4.28;;;;;;;25.97;46.30;99217.06;5092739;28;20045;-60
2021/03/14 07:51:30;;;;;;;13.30;4.25;;;;;;;25.98;47.42;99213.22;5093019;28;20022;-61
2021/03/14 07:54:02;;;;;;;11.00;4.38;;;;;;;25.97;45.19;99217.06;5074953;22;20075;-61
2021/03/14 07:56:36;;;;;;;11.52;3.65;;;;;;;26.00;47.26;99227.56;5051575;28;20049;-61
2021/03/14 07:59:01;;;;;;;11.32;4.57;;;;;;;26.05;45.44;99215.78;5052407;28;20078;-60
2021/03/14 08:01:31;;;;;;;10.50;3.78;;;;;;;26.13;45.92;99222.72;5065174;28;20032;-60
2021/03/14 08:03:56;;;;;;;11.30;4.10;;;;;;;26.14;48.18;99227.13;5072391;28;20027;-61
2021/03/14 08:06:48;;;;;;;12.35;3.78;;;;;;;26.06;44.40;99229.28;5072119;28;20016;-61
2021/03/14 08:09:40;;;;;;;11.30;3.95;;;;;;;26.12;44.61;99234.81;5072416;28;20041;-60
2021/03/14 08:12:15;;;;;;;10.50;3.80;;;;;;;26.22;44.77;99229.44;5072327;28;20016;-61
2021/03/14 08:14:42;;;;;;;11.00;4.47;;;;;;;26.18;45.33;99220.00;5072284;28;20043;-61
2021/03/14 08:17:24;;;;;;;13.02;3.97;;;;;;;26.16;46.41;99234.03;5072618;28;20050;-60
2021/03/14 08:19:51;;;;;;;9.10;3.85;;;;;;;26.03;47.07;99235.31;5054383;28;20032;-61
2021/03/14 08:22:38;;;;;;;13.13;4.20;;;;;;;25.81;45.64;99233.69;5072209;28;20025;-60
2021/03/14 08:25:22;;;;;;;9.10;3.60;;;;;;;25.73;48.42;99235.00;5072179;28;20070;-60
2021/03/14 08:27:51;;;;;;;12.48;4.15;;;;;;;25.66;46.33;99234.31;5072398;28;20020;-61
2021/03/14 08:30:31;;;;;;;9.50;3.65;;;;;;;25.54;47.58;99239.16;5072115;28;20387;-61
2021/03/14 08:33:18;;;;;;;10.50;3.90;;;;;;;25.55;46.51;99251.81;5072422;28;20074;-60
2021/03/14 08:35:45;;;;;;;9.15;4.07;;;;;;;25.58;43.95;99248.53;5072210;28;20374;-61
2021/03/14 08:38:26;;;;;;;11.07;4.57;;;;;;;25.44;46.25;99242.59;5053818;28;20035;-60
2021/03/14 08:41:22;;;;;;;10.75;3.97;;;;;;;25.55;46.39;99258.16;5072143;28;20059;-61
2021/03/14 08:43:50;;;;;;;11.52;3.75;;;;;;;25.34;45.83;99251.53;5072238;28;20020;-61
2021/03/14 08:46:16;;;;;;;10.45;3.65;;;;;;;25.38;47.93;99260.97;5071935;28;20040;-62
2021/03/14 08:48:41;;;;;;;13.70;4.68;;;;;;;25.37;46.20;99251.06;5074611;28;20063;-61
2021/03/14 08:51:09;;;;;;;11.68;4.18;;;;;;;25.50;47.09;99258.91;5075865;28;20031;-61
2021/03/14 08:53:35;;;;;;;9.93;3.40;;;;;;;25.39;47.10;99256.28;5075872;28;20037;-60
2021/03/14 08:56:01;;;;;;;12.27;3.97;;;;;;;25.58;46.19;99270.56;5075561;28;20098;-61
2021/03/14 08:58:27;;;;;;;8.45;3.67;;;;;;;25.55;43.78;99265.56;5075657;28;20056;-60
2021/03/14 09:01:04;;;;;;;10.60;4.25;;;;;;;25.55;45.45;99273.81;5057427;28;20017;-61
2021/03/14 09:03:30;;;;;;;11.75;3.80;;;;;;;25.48;44.26;99266.56;5058246;28;20345;-59
2021/03/14 09:06:01;;;;;;;9.60;4.00;;;;;;;25.60;46.48;99271.13;5075069;28;20085;-61
2021/03/14 09:08:27;;;;;;;11.93;3.72;;;;;;;25.59;48.24;99274.97;5075398;28;20032;-60
2021/03/14 09:10:52;;;;;;;12.90;4.05;;;;;;;25.64;46.89;99284.09;5075316;28;20135;-61
2021/03/14 09:13:29;;;;;;;11.60;4.65;;;;;;;25.70;47.87;99279.53;5075902;28;20032;-60
2021/03/14 09:15:55;;;;;;;11.65;4.00;;;;;;;25.81;46.01;99285.97;5057434;28;20372;-61
2021/03/14 09:18:24;;;;;;;12.60;3.95;;;;;;;25.85;45.01;99270.59;5075656;28;20021;-60
2021/03/14 09:20:59;;;;;;;9.20;3.65;;;;;;;25.86;48.12;99277.78;5075434;28;20031;-60
2021/03/14 09:23:25;;;;;;;11.70;4.05;;;;;;;25.81;47.65;99277.72;5075559;28;20036;-60
2021/03/14 09:25:52;;;;;;;11.63;4.43;;;;;;;25.79;47.16;99280.75;5075335;28;20025;-60
2021/03/14 09:28:17;;;;;;;13.70;4.30;;;;;;;25.86;47.66;99283.28;5057392;28;20371;-61
2021/03/14 09:30:42;;;;;;;9.63;3.70;;;;;;;25.84;45.22;99280.78;5075350;28;20032;-60
2021/03/14 09:33:08;;;;;;;11.45;3.25;;;;;;;25.87;48.61;99282.22;5075168;28;20032;-60
2021/03/14 09:35:36;;;;;;;11.05;4.40;;;;;;;25.94;47.82;99283.66;5075263;28;20059;-61
2021/03/14 09:38:15;;;;;;;15.18;4.10;;;;;;;25.94;46.73;99286.41;5074276;28;20028;-60
2021/03/14 09:40:45;;;;;;;10.60;4.10;;;;;;;26.02;46.11;99288.69;5075215;28;20032;-60
2021/03/14 09:43:24;;;;;;;10.07;4.18;;;;;;;26.05;47.19;99281.88;5075015;28;20474;-60
2021/03/14 09:45:52;;;;;;;11.63;4.15;;;;;;;25.97;43.92;99285.91;5074992;28;20048;-61
2021/03/14 09:48:19;;;;;;;9.77;3.75;;;;;;;26.00;46.46;99293.63;5074805;28;20482;-60
2021/03/14 09:50:51;;;;;;;11.95;5.03;;;;;;;26.04;46.09;99286.53;5075004;28;20077;-61
2021/03/14 09:53:18;;;;;;;11.48;3.75;;;;;;;26.03;48.44;99284.88;5074653;28;20072;-60
2021/03/14 09:55:46;;;;;;;9.88;3.78;;;;;;;26.04;45.36;99292.03;5074808;28;20032;-60
2021/03/14 09:58:14;;;;;;;11.50;4.47;;;;;;;26.00;46.52;99296.38;5075017;28;20029;-61
2021/03/14 10:00:41;;;;;;;10.65;3.90;;;;;;;26.07;43.96;99299.78;5074330;28;20017;-60
2021/03/14 10:03:12;;;;;;;16.90;5.03;;;;;;;26.04;44.20;99303.06;5074584;28;20025;-60
2021/03/14 10:05:49;;;;;;;11.85;3.90;;;;;;;26.06;45.72;99306.38;5074458;28;20021;-60
2021/03/14 10:08:20;;;;;;;11.50;4.20;;;;;;;26.05;48.08;99310.22;5074397;28;20029;-60
2021/03/14 10:10:47;;;;;;;12.85;4.28;;;;;;;25.98;46.57;99315.09;5074571;28;20031;-61
2021/03/14 10:13:13;;;;;;;10.60;4.15;;;;;;;26.03;45.19;99320.69;5074435;28;21219;-60
2021/03/14 10:15:40;;;;;;;13.65;4.95;;;;;;;26.13;48.19;99310.84;5074741;28;20119;-60
2021/03/14 10:18:06;;;;;;;12.85;4.50;;;;;;;26.05;44.78;99315.75;5074226;28;20020;-60
2021/03/14 10:20:34;;;;;;;12.90;4.38;;;;;;;26.04;46.60;99313.25;5074052;28;20490;-60
2021/03/14 10:23:02;;;;;;;11.75;4.68;;;;;;;26.18;44.64;99317.22;5074192;28;20383;-60
2021/03/14 10:25:30;;;;;;;10.95;3.97;;;;;;;26.32;44.15;99323.16;5074372;28;20021;-60
2021/03/14 10:28:09;;;;;;;13.20;4.18;;;;;;;26.30;43.08;99328.09;5074075;28;20024;-60
2021/03/14 10:30:35;;;;;;;11.20;4.70;;;;;;;26.45;44.26;99320.03;5074110;28;20172;-60
2021/03/14 10:33:00;;;;;;;11.93;4.35;;;;;;;26.51;44.87;99329.97;5073951;28;20455;-60
2021/03/14 10:35:26;;;;;;;14.25;4.40;;;;;;;26.38;46.17;99330.44;5073784;28;20062;-61
2021/03/14 10:37:51;;;;;;;15.88;4.57;;;;;;;26.37;49.52;99328.75;5073882;28;20052;-60
2021/03/14 10:40:22;;;;;;;10.45;3.67;;;;;;;26.16;48.57;99343.38;5073519;28;20439;-61
2021/03/14 10:42:49;;;;;;;11.75;4.18;;;;;;;25.95;47.05;99343.16;5073894;28;20502;-61
2021/03/14 10:45:17;;;;;;;11.43;3.88;;;;;;;25.77;49.31;99340.72;5073641;28;20032;-60
2021/03/14 10:47:45;;;;;;;13.05;4.05;;;;;;;25.84;47.85;99346.03;5073900;28;20356;-60
2021/03/14 10:50:17;;;;;;;12.90;4.38;;;;;;;25.75;47.19;99349.22;5055710;28;20032;-60
2021/03/14 10:52:43;;;;;;;11.95;4.05;;;;;;;25.68;45.83;99358.75;5073566;28;20024;-61
2021/03/14 10:55:24;;;;;;;13.15;4.00;;;;;;;25.69;45.99;99354.91;5073469;28;20063;-60
2021/03/14 10:57:50;;;;;;;10.75;4.18;;;;;;;25.54;45.43;99357.44;5073573;28;20024;-61
2021/03/14 11:00:16;;;;;;;9.43;3.95;;;;;;;25.53;46.20;99358.50;5072758;28;20021;-60
2021/03/14 11:02:43;;;;;;;10.63;3.78;;;;;;;25.50;43.79;99362.59;5073539;28;20082;-60
2021/03/14 11:05:09;;;;;;;9.18;3.92;;;;;;;25.63;47.64;99355.91;5072101;28;20008;-60
2021/03/14 11:07:36;;;;;;;13.00;4.65;;;;;;;25.64;43.08;99358.41;5073018;28;20028;-60
2021/03/14 11:10:27;;;;;;;11.32;4.32;;;;;;;25.58;44.81;99364.94;5073215;28;20032;-60
2021/03/14 11:12:53;;;;;;;10.82;3.80;;;;;;;25.62;46.88;99360.59;5069352;28;20432;-61
2021/03/14 11:15:23;;;;;;;11.40;3.97;;;;;;;25.66;46.33;99374.66;5073304;28;20052;-61
2021/03/14 11:17:49;;;;;;;13.57;4.25;;;;;;;25.64;47.29;99368.59;5055158;28;20079;-60
2021/03/14 11:20:14;;;;;;;10.63;4.13;;;;;;;25.69;46.30;99376.94;5073272;28;20394;-61
2021/03/14 11:22:39;;;;;;;14.25;5.20;;;;;;;25.76;46.52;99380.34;5073204;28;20018;-60
2021/03/14 11:25:05;;;;;;;11.13;3.95;;;;;;;25.72;48.89;99370.94;5072902;28;20024;-60
2021/03/14 11:27:31;;;;;;;13.65;4.13;;;;;;;25.76;48.58;99374.84;5073193;28;20020;-61
2021/03/14 11:29:56;;;;;;;9.93;3.83;;;;;;;25.86;46.47;99371.38;5072796;28;20028;-61
2021/03/14 11:32:22;;;;;;;11.43;3.85;;;;;;;25.97;46.18;99382.25;5072893;28;20063;-60